Time;durP1;ratioP1;P1;durP2;ratioP2;P2;SDS_P1;SDS_P2;PMS_P1;PMS_P2;Temp;Humidity;BMP_temperature;BMP_pressure;BME280_temperature;BME280_humidity;BME280_pressure;Samples;Min_cycle;Max_cycle;Signal;HPM_P1;HPM_P2
2023/07/16 00:00:50;;;;;;;;;;;15.70;99.90;;;;;;5091506;28;20448;-68
2023/07/16 00:03:16;;;;;;;0.17;0.17;;;15.50;99.90;;;;;;5092025;28;19938;-65
2023/07/16 00:05:42;;;;;;;1.45;0.52;;;15.50;99.90;;;;;;5091727;28;20051;-68
2023/07/16 00:08:07;;;;;;;;;;;15.70;99.90;;;;;;5092017;28;20108;-66
2023/07/16 00:10:37;;;;;;;2.83;0.90;;;15.60;99.90;;;;;;5091463;28;19920;-68
2023/07/16 00:13:03;;;;;;;1.17;0.80;;;15.60;99.90;;;;;;5073690;28;20052;-67
2023/07/16 00:15:30;;;;;;;2.58;0.75;;;15.70;99.90;;;;;;5090637;28;20661;-65
2023/07/16 00:17:55;;;;;;;;;;;15.70;99.90;;;;;;5090712;28;20078;-65
2023/07/16 00:20:23;;;;;;;1.38;0.60;;;15.40;99.90;;;;;;5091451;28;19924;-65
2023/07/16 00:22:50;;;;;;;0.38;0.38;;;15.70;99.90;;;;;;5091368;28;20051;-66
2023/07/16 00:25:15;;;;;;;0.30;0.30;;;15.80;99.90;;;;;;5073219;28;20047;-67
2023/07/16 00:27:41;;;;;;;0.30;0.30;;;15.40;99.90;;;;;;5089879;28;20062;-69
2023/07/16 00:30:07;;;;;;;;;;;15.40;99.90;;;;;;5124768;27;20044;-67
2023/07/16 00:32:33;;;;;;;0.55;0.55;;;15.60;99.90;;;;;;5091268;28;19995;-69
2023/07/16 00:34:59;;;;;;;0.35;0.35;;;15.40;99.90;;;;;;5073428;28;20043;-68
2023/07/16 00:37:24;;;;;;;;;;;15.30;99.90;;;;;;5090281;28;20407;-67
2023/07/16 00:39:51;;;;;;;0.43;0.43;;;15.10;99.90;;;;;;5089688;28;19931;-66
2023/07/16 00:42:16;;;;;;;;;;;15.10;99.90;;;;;;5090436;28;20047;-67
2023/07/16 00:44:42;;;;;;;0.70;0.52;;;14.90;99.90;;;;;;5090978;28;19962;-67
2023/07/16 00:47:08;;;;;;;;;;;15.10;99.90;;;;;;5091348;28;20062;-65
2023/07/16 00:49:34;;;;;;;0.45;0.40;;;14.90;99.90;;;;;;5090088;28;19936;-67
2023/07/16 00:52:00;;;;;;;0.57;0.57;;;14.80;99.90;;;;;;5090957;28;20067;-68
2023/07/16 00:54:26;;;;;;;;;;;15.10;99.90;;;;;;5091312;28;20565;-63
2023/07/16 00:56:52;;;;;;;0.70;0.52;;;14.80;99.90;;;;;;5090781;28;19995;-65
2023/07/16 00:59:18;;;;;;;0.55;0.55;;;14.60;99.90;;;;;;5091038;28;20044;-66
2023/07/16 01:01:43;;;;;;;0.55;0.55;;;15.10;99.90;;;;;;5089776;28;20040;-66
2023/07/16 01:04:09;;;;;;;1.00;0.98;;;14.50;99.90;;;;;;5091326;28;20044;-65
2023/07/16 01:06:41;;;;;;;1.00;1.00;;;14.70;99.90;;;;;;5091050;28;20343;-65
2023/07/16 01:09:09;;;;;;;0.32;0.32;;;14.90;99.90;;;;;;5090870;28;20044;-66
2023/07/16 01:11:37;;;;;;;0.43;0.43;;;14.60;99.90;;;;;;5091141;28;20051;-66
2023/07/16 01:14:03;;;;;;;3.88;2.70;;;14.80;99.90;;;;;;5095117;28;20123;-64
2023/07/16 01:16:29;;;;;;;0.20;0.20;;;14.60;99.90;;;;;;5093597;28;20044;-66
2023/07/16 01:18:55;;;;;;;0.30;0.30;;;15.10;99.90;;;;;;5093685;28;20221;-65
2023/07/16 01:21:23;;;;;;;3.58;0.25;;;14.80;99.90;;;;;;5094739;28;20048;-66
2023/07/16 01:23:54;;;;;;;0.80;0.60;;;14.90;99.90;;;;;;5094652;28;20048;-65
2023/07/16 01:26:46;;;;;;;0.55;0.50;;;14.70;99.90;;;;;;5094865;28;20142;-64
2023/07/16 01:29:29;;;;;;;0.90;0.90;;;14.80;99.90;;;;;;5094626;28;20090;-67
2023/07/16 01:31:56;;;;;;;0.20;0.20;;;14.60;99.90;;;;;;5094597;28;20040;-65
2023/07/16 01:34:24;;;;;;;2.47;0.75;;;14.70;99.90;;;;;;5094508;28;20113;-68
2023/07/16 01:36:50;;;;;;;6.55;1.05;;;15.30;99.90;;;;;;5076923;28;20135;-65
2023/07/16 01:39:16;;;;;;;;;;;14.80;99.90;;;;;;5093675;28;20048;-65
2023/07/16 01:41:42;;;;;;;0.20;0.20;;;14.90;99.90;;;;;;5093267;28;19930;-66
2023/07/16 01:44:08;;;;;;;;;;;15.10;99.90;;;;;;5094651;28;20060;-67
2023/07/16 01:46:33;;;;;;;0.60;0.60;;;15.00;99.90;;;;;;5094129;28;19920;-67
2023/07/16 01:48:59;;;;;;;0.20;0.20;;;15.30;99.90;;;;;;5092903;28;20056;-65
2023/07/16 01:51:25;;;;;;;0.30;0.30;;;15.30;99.90;;;;;;5092934;28;20070;-66
2023/07/16 01:53:50;;;;;;;;;;;15.00;99.90;;;;;;5093333;28;20040;-66
2023/07/16 01:56:16;;;;;;;1.27;0.80;;;15.20;99.90;;;;;;5094198;28;20305;-66
2023/07/16 01:58:42;;;;;;;0.75;0.73;;;15.30;99.90;;;;;;5093985;28;20044;-66
2023/07/16 02:01:08;;;;;;;1.75;0.70;;;15.10;99.90;;;;;;5093972;28;20048;-67
2023/07/16 02:03:33;;;;;;;0.50;0.50;;;15.10;99.90;;;;;;5093895;28;20047;-65
2023/07/16 02:05:59;;;;;;;;;;;15.10;99.90;;;;;;5094519;28;20087;-66
2023/07/16 02:08:25;;;;;;;1.95;0.95;;;15.10;99.90;;;;;;5093953;28;19971;-65
2023/07/16 02:10:50;;;;;;;;;;;15.00;99.90;;;;;;5094387;28;20047;-65
2023/07/16 02:13:16;;;;;;;0.57;0.50;;;15.30;99.90;;;;;;5093836;28;19942;-66
2023/07/16 02:15:42;;;;;;;;;;;17.10;99.90;;;;;;5094204;28;20043;-65
2023/07/16 02:18:08;;;;;;;1.77;1.30;;;15.00;99.90;;;;;;5093622;28;19970;-64
2023/07/16 02:20:33;;;;;;;0.30;0.30;;;15.00;99.90;;;;;;5093726;28;20091;-65
2023/07/16 02:22:59;;;;;;;;;;;15.00;99.90;;;;;;5093272;28;20056;-68
2023/07/16 02:25:25;;;;;;;0.10;0.10;;;15.40;99.90;;;;;;5093113;28;20412;-68
2023/07/16 02:27:51;;;;;;;;;;;15.10;99.90;;;;;;5093959;28;20058;-64
2023/07/16 02:30:17;;;;;;;0.35;0.35;;;15.30;99.90;;;;;;5093495;28;19920;-66
2023/07/16 02:32:42;;;;;;;;;;;15.10;99.90;;;;;;5092741;28;20055;-65
2023/07/16 02:35:08;;;;;;;0.20;0.20;;;15.00;99.90;;;;;;5092709;28;19975;-67
2023/07/16 02:37:34;;;;;;;;;;;15.20;99.90;;;;;;5094026;28;20075;-65
2023/07/16 02:40:00;;;;;;;0.30;0.30;;;15.20;99.90;;;;;;5092095;28;20014;-65
2023/07/16 02:42:26;;;;;;;;;;;14.90;99.90;;;;;;5092275;28;20120;-68
2023/07/16 02:44:51;;;;;;;1.60;0.93;;;15.50;99.90;;;;;;5092932;28;19939;-67
2023/07/16 02:47:17;;;;;;;0.20;0.20;;;15.30;99.90;;;;;;5093016;28;20052;-66
2023/07/16 02:49:43;;;;;;;0.40;0.40;;;15.40;99.90;;;;;;5093250;28;20100;-65
2023/07/16 02:52:09;;;;;;;0.20;0.20;;;15.30;99.90;;;;;;5092980;28;20040;-64
2023/07/16 02:54:37;;;;;;;0.28;0.28;;;15.20;99.90;;;;;;5093254;28;20048;-65
2023/07/16 02:57:03;;;;;;;0.45;0.45;;;15.20;99.90;;;;;;5092786;28;20514;-65
2023/07/16 02:59:29;;;;;;;;;;;15.10;99.90;;;;;;5093212;28;20122;-65
2023/07/16 03:01:55;;;;;;;0.63;0.63;;;15.20;99.90;;;;;;5092776;28;20336;-65
2023/07/16 03:04:20;;;;;;;0.35;0.35;;;15.40;99.90;;;;;;5092928;28;20507;-65
2023/07/16 03:06:46;;;;;;;;;;;15.30;99.90;;;;;;5092994;28;20494;-64
2023/07/16 03:09:12;;;;;;;0.40;0.40;;;15.40;99.90;;;;;;5092703;28;19931;-67
2023/07/16 03:11:37;;;;;;;0.25;0.25;;;15.20;99.90;;;;;;5074645;28;20496;-66
2023/07/16 03:14:03;;;;;;;0.70;0.70;;;15.40;99.90;;;;;;5092579;28;20059;-66
2023/07/16 03:16:29;;;;;;;;;;;15.20;99.90;;;;;;5092883;28;20503;-65
2023/07/16 03:18:54;;;;;;;0.20;0.20;;;15.10;99.90;;;;;;5092620;28;19920;-66
2023/07/16 03:21:20;;;;;;;1.05;0.88;;;15.20;99.90;;;;;;5074053;28;20044;-66
2023/07/16 03:23:46;;;;;;;;;;;14.90;99.90;;;;;;5091612;28;20052;-65
2023/07/16 03:26:11;;;;;;;0.75;0.75;;;14.80;99.90;;;;;;5092438;28;19963;-66
2023/07/16 03:28:37;;;;;;;;;;;15.00;99.90;;;;;;5091695;28;20134;-65
2023/07/16 03:31:03;;;;;;;13.68;1.45;;;15.20;99.90;;;;;;5092169;28;19968;-67
2023/07/16 03:33:28;;;;;;;0.20;0.20;;;14.70;99.90;;;;;;5091074;28;20056;-67
2023/07/16 03:35:54;;;;;;;;;;;15.10;99.90;;;;;;5092639;28;20139;-65
2023/07/16 03:38:20;;;;;;;0.22;0.22;;;15.00;99.90;;;;;;5092271;28;19924;-68
2023/07/16 03:40:50;;;;;;;0.47;0.47;;;14.90;99.90;;;;;;5090736;28;20044;-66
2023/07/16 03:43:16;;;;;;;0.60;0.60;;;15.00;99.90;;;;;;5091954;28;20055;-65
2023/07/16 03:45:43;;;;;;;0.38;0.38;;;15.00;99.90;;;;;;5091690;28;20052;-64
2023/07/16 03:48:09;;;;;;;1.55;1.45;;;14.80;99.90;;;;;;5092004;28;20052;-66
2023/07/16 03:50:35;;;;;;;0.60;0.47;;;14.90;99.90;;;;;;5091911;28;20051;-67
2023/07/16 03:53:03;;;;;;;0.30;0.30;;;15.00;99.90;;;;;;5091853;28;20097;-67
2023/07/16 03:55:29;;;;;;;0.43;0.30;;;14.90;99.90;;;;;;5091893;28;20048;-64
2023/07/16 03:57:55;;;;;;;0.30;0.30;;;15.00;99.90;;;;;;5091640;28;20052;-67
2023/07/16 04:00:20;;;;;;;0.80;0.80;;;15.20;99.90;;;;;;5091458;28;20103;-63
2023/07/16 04:02:46;;;;;;;0.30;0.30;;;15.20;99.90;;;;;;5091728;28;20056;-67
2023/07/16 04:05:12;;;;;;;1.00;0.50;;;15.40;99.90;;;;;;5092002;28;20087;-66
2023/07/16 04:07:38;;;;;;;0.30;0.30;;;15.10;99.90;;;;;;5090967;28;20036;-66
2023/07/16 04:10:04;;;;;;;;;;;15.30;99.90;;;;;;5074121;28;20051;-65
2023/07/16 04:12:29;;;;;;;0.30;0.30;;;15.30;99.90;;;;;;5091506;28;20451;-67
2023/07/16 04:14:58;;;;;;;0.68;0.68;;;15.30;99.90;;;;;;5091346;28;20356;-65
2023/07/16 04:17:24;;;;;;;0.80;0.80;;;15.20;99.90;;;;;;5091572;28;20077;-65
2023/07/16 04:19:50;;;;;;;0.68;0.68;;;15.10;99.90;;;;;;5091373;28;20048;-65
2023/07/16 04:22:15;;;;;;;1.75;0.85;;;15.60;99.90;;;;;;5091465;28;20091;-64
2023/07/16 04:24:41;;;;;;;;;;;15.70;99.90;;;;;;5091719;28;20058;-67
2023/07/16 04:27:07;;;;;;;2.05;1.85;;;15.40;99.90;;;;;;5091267;28;20037;-65
2023/07/16 04:29:32;;;;;;;;;;;15.60;99.90;;;;;;5091743;28;20056;-65
2023/07/16 04:31:58;;;;;;;0.30;0.30;;;15.50;99.90;;;;;;5091755;28;20011;-66
2023/07/16 04:34:24;;;;;;;;;;;15.50;99.90;;;;;;5091721;28;20043;-67
2023/07/16 04:36:49;;;;;;;0.50;0.40;;;15.50;99.90;;;;;;5091319;28;19920;-65
2023/07/16 04:39:15;;;;;;;;;;;15.70;99.90;;;;;;5091497;28;20083;-64
2023/07/16 04:41:41;;;;;;;0.98;0.60;;;15.50;99.90;;;;;;5091107;28;20001;-65
2023/07/16 04:44:06;;;;;;;;;;;15.70;99.90;;;;;;5091347;28;20056;-66
2023/07/16 04:46:32;;;;;;;2.05;1.85;;;15.80;99.90;;;;;;5090714;28;19924;-65
2023/07/16 04:48:58;;;;;;;;;;;15.80;99.90;;;;;;5090516;28;20503;-65
2023/07/16 04:51:24;;;;;;;0.45;0.45;;;15.90;99.90;;;;;;5091053;28;19930;-66
2023/07/16 04:53:49;;;;;;;;;;;16.00;99.90;;;;;;5091436;28;20051;-66
2023/07/16 04:56:16;;;;;;;0.63;0.63;;;16.00;99.90;;;;;;5090857;28;19924;-66
2023/07/16 04:58:42;;;;;;;1.38;1.00;;;16.30;99.90;;;;;;5090728;28;20083;-64
2023/07/16 05:01:08;;;;;;;;;;;16.40;99.90;;;;;;5091343;28;20044;-65
2023/07/16 05:03:34;;;;;;;1.23;0.73;;;16.20;99.90;;;;;;5090839;28;19931;-66
2023/07/16 05:06:00;;;;;;;;;;;16.60;99.90;;;;;;5091273;28;20052;-66
2023/07/16 05:08:26;;;;;;;0.25;0.25;;;16.50;99.90;;;;;;5090673;28;19923;-65
2023/07/16 05:10:52;;;;;;;4.03;1.50;;;16.30;99.90;;;;;;5089286;28;20074;-64
2023/07/16 05:13:17;;;;;;;2.28;1.67;;;15.90;99.90;;;;;;5090663;28;20060;-65
2023/07/16 05:15:43;;;;;;;;;;;16.50;99.90;;;;;;5091222;28;20047;-66
2023/07/16 05:18:09;;;;;;;3.38;1.30;;;16.60;99.90;;;;;;5090847;28;19923;-69
2023/07/16 05:20:35;;;;;;;0.40;0.40;;;16.10;99.90;;;;;;5090654;28;20047;-66
2023/07/16 05:23:00;;;;;;;;;;;16.40;99.90;;;;;;5091030;28;20047;-67
2023/07/16 05:25:26;;;;;;;1.13;0.60;;;16.60;99.90;;;;;;5089290;28;19924;-69
2023/07/16 05:27:52;;;;;;;;;;;16.10;99.90;;;;;;5089521;28;20048;-66
2023/07/16 05:30:17;;;;;;;1.55;0.55;;;16.80;99.90;;;;;;5090666;28;19924;-65
2023/07/16 05:32:43;;;;;;;;;;;16.70;99.90;;;;;;5091079;28;20040;-66
2023/07/16 05:35:11;;;;;;;1.20;0.50;;;16.90;99.90;;;;;;5089337;28;20485;-66
2023/07/16 05:37:37;;;;;;;0.43;0.43;;;16.70;99.90;;;;;;5090496;28;20071;-67
2023/07/16 05:40:03;;;;;;;;;;;16.90;99.90;;;;;;5089699;28;20491;-66
2023/07/16 05:42:29;;;;;;;1.27;0.55;;;16.70;99.90;;;;;;5090409;28;19984;-63
2023/07/16 05:44:55;;;;;;;;;;;16.90;99.90;;;;;;5090750;28;20060;-66
2023/07/16 05:47:20;;;;;;;8.25;0.90;;;16.50;99.90;;;;;;5089625;28;20535;-65
2023/07/16 05:49:46;;;;;;;;;;;16.60;99.90;;;;;;5091135;28;20048;-65
2023/07/16 05:52:12;;;;;;;0.85;0.60;;;16.50;99.90;;;;;;5090469;28;20019;-65
2023/07/16 05:54:37;;;;;;;;;;;16.20;99.90;;;;;;5090962;28;20143;-65
2023/07/16 05:57:03;;;;;;;1.85;0.85;;;16.40;99.90;;;;;;5090307;28;19928;-67
2023/07/16 05:59:29;;;;;;;;;;;16.50;99.90;;;;;;5090918;28;20144;-65
2023/07/16 06:01:57;;;;;;;0.57;0.50;;;16.40;99.90;;;;;;5092767;28;19931;-66
2023/07/16 06:04:23;;;;;;;0.68;0.68;;;16.10;99.90;;;;;;5093917;28;20503;-66
2023/07/16 06:06:49;;;;;;;;;;;16.40;99.90;;;;;;5094265;28;20058;-67
2023/07/16 06:09:14;;;;;;;0.30;0.30;;;16.50;99.90;;;;;;5093815;28;19924;-66
2023/07/16 06:11:40;;;;;;;;;;;16.70;99.90;;;;;;5094131;28;20044;-65
2023/07/16 06:14:06;;;;;;;0.93;0.93;;;16.70;99.90;;;;;;5092762;28;19981;-65
2023/07/16 06:16:31;;;;;;;;;;;16.70;99.90;;;;;;5094288;28;20048;-65
2023/07/16 06:18:57;;;;;;;2.40;1.05;;;17.00;99.90;;;;;;5093720;28;20657;-66
2023/07/16 06:21:23;;;;;;;;;;;17.40;99.90;;;;;;5093972;28;20055;-67
2023/07/16 06:23:48;;;;;;;0.52;0.50;;;17.20;99.90;;;;;;5093702;28;20006;-66
2023/07/16 06:26:14;;;;;;;;;;;17.10;99.90;;;;;;5094099;28;20079;-67
2023/07/16 06:28:40;;;;;;;0.73;0.73;;;17.20;99.90;;;;;;5092488;28;19924;-67
2023/07/16 06:31:05;;;;;;;;;;;17.40;99.90;;;;;;5094150;28;20086;-65
2023/07/16 06:33:31;;;;;;;1.42;0.80;;;17.50;99.90;;;;;;5075557;28;20299;-65
2023/07/16 06:35:56;;;;;;;;;;;17.90;99.90;;;;;;5093876;28;20047;-67
2023/07/16 06:38:22;;;;;;;0.25;0.25;;;17.30;99.90;;;;;;5093376;28;19965;-66
2023/07/16 06:40:48;;;;;;;;;;;17.80;99.90;;;;;;5092246;28;20055;-66
2023/07/16 06:43:15;;;;;;;0.57;0.57;;;17.60;99.90;;;;;;5093389;28;19947;-67
2023/07/16 06:45:40;;;;;;;9.63;0.75;;;17.70;99.90;;;;;;5092869;28;20055;-66
2023/07/16 06:48:06;;;;;;;;;;;18.10;99.90;;;;;;5092536;28;20059;-67
2023/07/16 06:50:32;;;;;;;0.80;0.80;;;18.00;99.90;;;;;;5093070;28;20026;-67
2023/07/16 06:52:57;;;;;;;;;;;18.10;99.90;;;;;;5093332;28;20048;-64
2023/07/16 06:55:23;;;;;;;0.88;0.88;;;18.10;99.90;;;;;;5092898;28;19932;-66
2023/07/16 06:57:48;;;;;;;;;;;18.40;99.90;;;;;;5092046;28;20483;-65
2023/07/16 07:00:14;;;;;;;1.00;0.47;;;18.80;99.90;;;;;;5092884;28;19981;-68
2023/07/16 07:02:41;;;;;;;;;;;18.60;99.90;;;;;;5093219;28;20044;-67
2023/07/16 07:05:07;;;;;;;0.40;0.40;;;18.60;99.90;;;;;;5091751;28;19920;-67
2023/07/16 07:07:32;;;;;;;;;;;18.20;99.90;;;;;;5093042;28;20048;-67
2023/07/16 07:09:58;;;;;;;2.38;1.50;;;18.50;99.90;;;;;;5092302;28;19924;-64
2023/07/16 07:12:23;;;;;;;0.15;0.15;;;18.40;99.90;;;;;;5091082;28;20052;-65
2023/07/16 07:14:49;;;;;;;0.30;0.30;;;18.20;99.90;;;;;;5092701;28;20040;-65
2023/07/16 07:17:15;;;;;;;1.80;0.65;;;18.60;99.90;;;;;;5092548;28;20048;-67
2023/07/16 07:19:42;;;;;;;0.40;0.40;;;18.10;99.90;;;;;;5092488;28;20040;-65
2023/07/16 07:22:08;;;;;;;2.35;1.20;;;17.70;99.90;;;;;;5092433;28;20056;-66
2023/07/16 07:24:33;;;;;;;9.73;1.05;;;17.60;99.90;;;;;;5092392;28;20234;-69
2023/07/16 07:26:59;;;;;;;1.13;1.13;;;17.50;99.90;;;;;;5092643;28;20048;-67
2023/07/16 07:29:25;;;;;;;;;;;17.40;99.90;;;;;;5092858;28;20459;-68
2023/07/16 07:31:52;;;;;;;0.50;0.50;;;17.40;99.90;;;;;;5092370;28;19942;-64
2023/07/16 07:34:17;;;;;;;0.47;0.47;;;17.10;99.90;;;;;;5092392;28;20063;-66
2023/07/16 07:36:43;;;;;;;0.43;0.43;;;17.00;99.90;;;;;;5092469;28;20048;-68
2023/07/16 07:39:08;;;;;;;1.35;0.88;;;16.80;99.90;;;;;;5092184;28;20566;-69
2023/07/16 07:41:34;;;;;;;;;;;17.40;99.90;;;;;;5092306;28;20044;-69
2023/07/16 07:44:00;;;;;;;0.17;0.17;;;17.50;99.90;;;;;;5092044;28;19920;-66
2023/07/16 07:46:25;;;;;;;;;;;17.20;99.90;;;;;;5092538;28;20464;-66
2023/07/16 07:48:51;;;;;;;6.80;1.05;;;17.50;99.90;;;;;;5092014;28;19988;-67
2023/07/16 07:51:17;;;;;;;1.13;0.52;;;17.50;99.90;;;;;;5090763;28;20513;-66
2023/07/16 07:53:42;;;;;;;;;;;17.40;99.90;;;;;;5092391;28;20139;-67
2023/07/16 07:56:08;;;;;;;0.35;0.35;;;17.40;99.90;;;;;;5091673;28;19978;-65
2023/07/16 07:58:34;;;;;;;;;;;17.50;99.90;;;;;;5092255;28;20467;-67
2023/07/16 08:01:08;;;;;;;3.40;0.57;;;17.30;99.90;;;;;;5091761;28;19920;-68
2023/07/16 08:03:35;;;;;;;1.48;1.38;;;17.30;99.90;;;;;;5091592;28;20068;-68
2023/07/16 08:06:01;;;;;;;0.50;0.47;;;17.50;99.90;;;;;;5091631;28;20067;-68
2023/07/16 08:08:26;;;;;;;;;;;17.40;99.90;;;;;;5091968;28;20046;-65
2023/07/16 08:10:54;;;;;;;0.45;0.45;;;17.50;99.90;;;;;;5091531;28;20003;-66
2023/07/16 08:13:19;;;;;;;0.25;0.25;;;17.70;99.90;;;;;;5091643;28;20058;-67
2023/07/16 08:15:45;;;;;;;;;;;18.00;99.90;;;;;;5091913;28;20040;-66
2023/07/16 08:18:11;;;;;;;8.27;1.45;;;17.90;99.90;;;;;;5091500;28;19949;-65
2023/07/16 08:20:37;;;;;;;0.55;0.45;;;18.10;99.90;;;;;;5091159;28;20044;-66
2023/07/16 08:23:03;;;;;;;1.20;0.80;;;18.40;99.90;;;;;;5090866;28;20203;-63
2023/07/16 08:25:28;;;;;;;0.35;0.35;;;18.50;99.90;;;;;;5090402;28;20044;-66
2023/07/16 08:27:54;;;;;;;0.73;0.73;;;19.10;99.90;;;;;;5091467;28;20055;-63
2023/07/16 08:30:20;;;;;;;0.40;0.40;;;19.00;99.90;;;;;;5091395;28;20055;-66
2023/07/16 08:32:46;;;;;;;0.65;0.65;;;18.60;99.90;;;;;;5091144;28;20044;-65
2023/07/16 08:35:16;;;;;;;0.52;0.40;;;18.80;99.90;;;;;;5091170;28;20054;-64
2023/07/16 08:37:42;;;;;;;0.25;0.25;;;19.20;99.90;;;;;;5089720;28;20116;-66
2023/07/16 08:40:09;;;;;;;0.70;0.52;;;18.90;99.90;;;;;;5091265;28;20043;-69
2023/07/16 08:42:38;;;;;;;0.80;0.63;;;19.00;99.90;;;;;;5089744;28;20491;-65
2023/07/16 08:45:07;;;;;;;11.80;0.60;;;19.20;99.90;;;;;;5090136;28;20105;-67
2023/07/16 08:47:34;;;;;;;0.40;0.40;;;18.80;99.90;;;;;;5110729;27;20061;-65
2023/07/16 08:50:01;;;;;;;1.30;0.82;;;19.50;99.90;;;;;;5069602;28;20048;-65
2023/07/16 08:52:27;;;;;;;0.70;0.70;;;19.10;99.90;;;;;;5068904;28;20117;-66
2023/07/16 08:54:54;;;;;;;0.47;0.47;;;19.30;99.90;;;;;;5068034;28;20048;-66
2023/07/16 08:57:21;;;;;;;1.77;1.67;;;19.30;99.90;;;;;;5070306;28;20155;-65
2023/07/16 08:59:51;;;;;;;1.02;0.70;;;19.30;99.90;;;;;;5069741;28;20971;-70
2023/07/16 09:02:21;;;;;;;0.85;0.70;;;19.30;99.90;;;;;;5087125;28;20048;-64
2023/07/16 09:04:52;;;;;;;0.40;0.40;;;19.50;99.90;;;;;;5089324;28;20123;-66
2023/07/16 09:07:18;;;;;;;0.38;0.38;;;18.80;99.90;;;;;;5089613;28;20054;-64
2023/07/16 09:09:55;;;;;;;1.25;1.15;;;19.00;99.90;;;;;;5090142;28;20032;-66
2023/07/16 09:12:23;;;;;;;;;;;19.20;99.90;;;;;;5067694;28;20052;-65
2023/07/16 09:14:48;;;;;;;4.07;1.38;;;19.20;99.90;;;;;;5069511;28;19974;-65
2023/07/16 09:17:23;;;;;;;0.85;0.73;;;19.30;99.90;;;;;;5069789;28;20044;-63
2023/07/16 09:19:51;;;;;;;1.25;0.80;;;19.40;99.90;;;;;;5087236;28;20046;-66
2023/07/16 09:22:20;;;;;;;0.30;0.30;;;19.10;99.90;;;;;;5090263;28;20440;-65
2023/07/16 09:24:47;;;;;;;0.85;0.73;;;19.60;99.90;;;;;;5090142;28;20407;-66
2023/07/16 09:27:13;;;;;;;0.50;0.22;;;19.50;99.90;;;;;;5090224;28;20055;-68
2023/07/16 09:29:39;;;;;;;0.40;0.40;;;19.50;99.90;;;;;;5080476;28;20040;-66
2023/07/16 09:32:05;;;;;;;3.15;1.60;;;19.70;99.90;;;;;;5089468;28;20044;-63
2023/07/16 09:34:32;;;;;;;0.40;0.40;;;19.70;99.90;;;;;;5093319;28;20063;-65
2023/07/16 09:36:58;;;;;;;0.15;0.15;;;20.30;99.90;;;;;;5093203;28;20050;-65
2023/07/16 09:39:26;;;;;;;0.25;0.25;;;20.20;99.90;;;;;;5093663;28;20082;-66
2023/07/16 09:41:52;;;;;;;0.93;0.93;;;20.00;99.90;;;;;;5093891;28;20047;-66
2023/07/16 09:44:19;;;;;;;4.50;1.23;;;20.20;99.90;;;;;;5092561;28;20149;-67
2023/07/16 09:46:46;;;;;;;0.25;0.25;;;20.30;99.90;;;;;;5093538;28;20052;-64
2023/07/16 09:49:14;;;;;;;0.40;0.40;;;20.40;99.90;;;;;;5093522;28;20082;-67
2023/07/16 09:51:42;;;;;;;1.05;0.95;;;20.40;99.90;;;;;;5090452;28;20445;-68
2023/07/16 09:54:12;;;;;;;0.95;0.70;;;20.20;99.90;;;;;;5090403;28;20551;-67
2023/07/16 09:56:45;;;;;;;0.47;0.47;;;20.10;99.90;;;;;;5090684;28;20127;-67
2023/07/16 09:59:16;;;;;;;0.52;0.52;;;20.40;99.90;;;;;;5091309;28;20048;-66
2023/07/16 10:01:42;;;;;;;3.55;0.90;;;21.00;99.90;;;;;;5093528;28;20041;-66
2023/07/16 10:04:16;;;;;;;0.30;0.30;;;18.40;99.90;;;;;;5093629;28;20070;-66
2023/07/16 10:06:59;;;;;;;0.20;0.20;;;20.80;99.90;;;;;;5093689;28;20083;-62
2023/07/16 10:09:56;;;;;;;0.20;0.20;;;20.50;99.90;;;;;;5093608;28;20361;-66
2023/07/16 10:12:23;;;;;;;0.35;0.35;;;20.20;99.90;;;;;;5093394;28;20051;-62
2023/07/16 10:14:50;;;;;;;0.22;0.22;;;20.00;99.90;;;;;;5093563;28;20148;-66
2023/07/16 10:17:26;;;;;;;0.20;0.20;;;20.40;99.90;;;;;;5092653;28;20565;-63
2023/07/16 10:20:01;;;;;;;1.27;0.98;;;20.50;99.90;;;;;;5086541;28;20160;-66
2023/07/16 10:22:38;;;;;;;0.93;0.93;;;20.50;99.90;;;;;;5092257;28;20043;-68
2023/07/16 10:25:27;;;;;;;0.47;0.47;;;20.30;99.90;;;;;;5092810;28;20051;-65
2023/07/16 10:27:54;;;;;;;0.85;0.85;;;20.50;99.90;;;;;;5086715;28;20117;-66
2023/07/16 10:30:20;;;;;;;1.15;1.05;;;20.60;99.90;;;;;;5091228;28;20051;-65
2023/07/16 10:32:46;;;;;;;0.30;0.30;;;21.00;99.90;;;;;;5092336;28;20047;-64
2023/07/16 10:35:12;;;;;;;1.10;1.02;;;20.70;99.90;;;;;;5091207;28;20048;-63
2023/07/16 10:37:39;;;;;;;0.80;0.40;;;20.50;99.90;;;;;;5091630;28;20039;-72
2023/07/16 10:40:10;;;;;;;0.63;0.52;;;20.10;99.90;;;;;;5091428;28;20039;-66
2023/07/16 10:42:36;;;;;;;0.30;0.30;;;19.70;99.90;;;;;;5089389;28;20661;-65
2023/07/16 10:45:04;;;;;;;0.40;0.40;;;19.60;99.90;;;;;;5091140;28;20059;-63
2023/07/16 10:47:40;;;;;;;0.90;0.43;;;19.40;99.90;;;;;;5098712;28;20553;-71
2023/07/16 10:50:09;;;;;;;2.63;1.13;;;19.60;99.90;;;;;;5113216;28;20055;-68
2023/07/16 10:52:37;;;;;;;1.17;0.63;;;20.10;99.90;;;;;;5111378;28;20050;-66
2023/07/16 10:55:04;;;;;;;1.20;0.30;;;20.70;99.90;;;;;;5112823;28;20055;-67
2023/07/16 10:57:29;;;;;;;0.57;0.57;;;20.80;99.90;;;;;;5112111;28;20058;-66
2023/07/16 10:59:58;;;;;;;0.50;0.50;;;20.40;99.90;;;;;;5093346;28;20040;-66
2023/07/16 11:02:25;;;;;;;0.20;0.20;;;20.30;99.90;;;;;;5092420;28;20054;-65
2023/07/16 11:04:57;;;;;;;3.38;1.58;;;19.70;99.90;;;;;;5092363;28;20052;-65
2023/07/16 11:07:23;;;;;;;0.15;0.15;;;19.60;99.90;;;;;;5091137;28;20484;-67
2023/07/16 11:09:55;;;;;;;0.73;0.73;;;19.60;99.90;;;;;;5090880;28;20052;-65
2023/07/16 11:12:24;;;;;;;3.00;2.33;;;19.90;99.90;;;;;;5092154;28;20462;-68
2023/07/16 11:14:52;;;;;;;1.55;0.80;;;19.50;99.90;;;;;;5092330;28;20147;-65
2023/07/16 11:17:20;;;;;;;3.03;0.77;;;19.80;99.90;;;;;;5092043;28;20051;-68
2023/07/16 11:19:50;;;;;;;0.10;0.10;;;19.70;99.90;;;;;;5091952;28;20052;-65
2023/07/16 11:22:16;;;;;;;12.40;0.82;;;19.90;99.90;;;;;;5091985;28;20118;-66
2023/07/16 11:24:50;;;;;;;0.73;0.73;;;19.80;99.90;;;;;;5091827;28;20638;-65
2023/07/16 11:27:16;;;;;;;0.77;0.43;;;20.00;99.90;;;;;;5091724;28;20047;-67
2023/07/16 11:29:52;;;;;;;0.65;0.63;;;19.90;99.90;;;;;;5092099;28;20096;-69
2023/07/16 11:32:34;;;;;;;1.43;0.23;;;20.20;99.90;;;;;;5090835;28;20052;-64
2023/07/16 11:35:01;;;;;;;0.60;0.43;;;20.70;99.90;;;;;;5091762;28;20331;-65
2023/07/16 11:37:29;;;;;;;2.00;0.45;;;21.10;99.90;;;;;;5091904;28;20056;-66
2023/07/16 11:40:03;;;;;;;0.90;0.55;;;20.70;99.90;;;;;;5091435;28;20110;-66
2023/07/16 11:42:36;;;;;;;0.63;0.30;;;20.90;99.90;;;;;;5091830;28;20048;-65
2023/07/16 11:45:03;;;;;;;6.13;3.15;;;20.60;99.90;;;;;;5091684;28;20146;-64
2023/07/16 11:47:30;;;;;;;1.70;0.80;;;21.00;99.90;;;;;;5091210;28;20507;-65
2023/07/16 11:49:57;;;;;;;0.25;0.25;;;20.80;99.90;;;;;;5091794;28;20047;-66
2023/07/16 11:52:27;;;;;;;0.30;0.30;;;20.50;99.90;;;;;;5090139;28;20086;-67
2023/07/16 11:54:59;;;;;;;0.85;0.43;;;20.20;99.90;;;;;;5073688;28;20064;-69
2023/07/16 11:57:25;;;;;;;1.05;0.98;;;19.90;99.90;;;;;;5090273;28;20101;-65
2023/07/16 11:59:51;;;;;;;1.10;0.50;;;20.60;99.90;;;;;;5090966;28;20040;-67
2023/07/16 12:02:17;;;;;;;1.45;0.17;;;20.80;99.90;;;;;;5089963;28;20059;-69
2023/07/16 12:04:43;;;;;;;0.20;0.20;;;21.20;99.90;;;;;;5091236;28;20060;-67
2023/07/16 12:07:08;;;;;;;0.65;0.30;;;20.60;99.90;;;;;;5091192;28;20488;-65
2023/07/16 12:09:34;;;;;;;0.95;0.95;;;20.60;99.90;;;;;;5090587;28;20090;-68
2023/07/16 12:12:00;;;;;;;0.10;0.10;;;20.10;99.90;;;;;;5089966;28;20108;-68
2023/07/16 12:14:26;;;;;;;0.10;0.10;;;20.10;99.90;;;;;;5090140;28;20404;-66
2023/07/16 12:16:52;;;;;;;0.20;0.20;;;19.80;99.90;;;;;;5091230;28;20152;-68
2023/07/16 12:19:18;;;;;;;1.17;1.17;;;19.90;99.90;;;;;;5089565;28;20084;-70
2023/07/16 12:21:44;;;;;;;0.10;0.10;;;19.60;99.90;;;;;;5072850;28;20128;-64
2023/07/16 12:24:11;;;;;;;0.45;0.43;;;20.40;99.90;;;;;;5090815;28;20570;-65
2023/07/16 12:26:37;;;;;;;0.17;0.17;;;20.70;99.90;;;;;;5090874;28;20500;-67
2023/07/16 12:29:03;;;;;;;2.22;0.75;;;21.20;99.90;;;;;;5090774;28;20105;-66
2023/07/16 12:31:33;;;;;;;0.28;0.28;;;20.90;99.90;;;;;;5089260;28;20055;-66
2023/07/16 12:34:01;;;;;;;1.80;1.25;;;20.60;99.90;;;;;;5090946;28;20101;-65
2023/07/16 12:36:28;;;;;;;0.60;0.55;;;20.70;99.90;;;;;;5089037;28;20116;-67
2023/07/16 12:38:53;;;;;;;0.98;0.82;;;20.50;99.90;;;;;;5090621;28;20789;-66
2023/07/16 12:41:19;;;;;;;0.30;0.30;;;21.60;99.90;;;;;;5090234;28;20048;-66
2023/07/16 12:43:46;;;;;;;0.30;0.30;;;20.00;99.90;;;;;;5090401;28;20044;-66
2023/07/16 12:46:12;;;;;;;0.75;0.75;;;19.60;99.90;;;;;;5091043;28;20056;-66
2023/07/16 12:48:37;;;;;;;0.22;0.22;;;19.20;99.90;;;;;;5090702;28;20051;-67
2023/07/16 12:51:03;;;;;;;3.25;0.55;;;19.00;99.90;;;;;;5086753;28;20838;-65
2023/07/16 12:53:29;;;;;;;5.10;1.85;;;18.40;99.90;;;;;;5088307;28;20048;-66
2023/07/16 12:55:55;;;;;;;0.60;0.60;;;18.10;99.90;;;;;;5089988;28;20404;-65
2023/07/16 12:58:20;;;;;;;4.18;0.88;;;17.80;99.90;;;;;;5090295;28;20043;-65
2023/07/16 13:00:46;;;;;;;0.13;0.13;;;18.10;99.90;;;;;;5089918;28;20062;-65